sensor_id;sensor_type;location;lat;lon;timestamp;temperature;humidity
5956;DHT22;3004;48.080;11.600;2023-03-05T09:36:43;2.20;99.90
5956;DHT22;3004;48.080;11.600;2023-03-05T09:39:22;2.30;99.90
5956;DHT22;3004;48.080;11.600;2023-03-05T09:42:16;2.30;99.90
5956;DHT22;3004;48.080;11.600;2023-03-05T09:45:11;2.20;99.90
5956;DHT22;3004;48.080;11.600;2023-03-05T09:47:48;2.30;99.90
5956;DHT22;3004;48.080;11.600;2023-03-05T09:50:43;2.40;99.90
5956;DHT22;3004;48.080;11.600;2023-03-05T09:53:22;2.50;99.90
5956;DHT22;3004;48.080;11.600;2023-03-05T09:55:53;2.50;99.90
5956;DHT22;3004;48.080;11.600;2023-03-05T09:58:27;2.50;99.90
5956;DHT22;3004;48.080;11.600;2023-03-05T10:00:59;2.50;99.90
5956;DHT22;3004;48.080;11.600;2023-03-05T10:03:30;2.40;99.90
5956;DHT22;3004;48.080;11.600;2023-03-05T10:06:05;2.40;99.90
5956;DHT22;3004;48.080;11.600;2023-03-05T10:09:14;2.40;99.90
5956;DHT22;3004;48.080;11.600;2023-03-05T10:11:53;2.40;99.90
5956;DHT22;3004;48.080;11.600;2023-03-05T10:14:25;2.50;99.90
5956;DHT22;3004;48.080;11.600;2023-03-05T10:17:08;2.50;99.90
5956;DHT22;3004;48.080;11.600;2023-03-05T10:19:51;2.60;99.90
5956;DHT22;3004;48.080;11.600;2023-03-05T10:22:23;2.70;99.90
5956;DHT22;3004;48.080;11.600;2023-03-05T10:25:13;2.50;99.90
5956;DHT22;3004;48.080;11.600;2023-03-05T10:27:47;2.40;99.90
5956;DHT22;3004;48.080;11.600;2023-03-05T10:30:26;2.40;99.90
5956;DHT22;3004;48.080;11.600;2023-03-05T10:33:04;2.30;99.90
5956;DHT22;3004;48.080;11.600;2023-03-05T10:35:58;2.30;99.90
5956;DHT22;3004;48.080;11.600;2023-03-05T10:38:40;2.30;99.90
5956;DHT22;3004;48.080;11.600;2023-03-05T10:41:23;2.30;99.90
5956;DHT22;3004;48.080;11.600;2023-03-05T10:43:59;2.40;99.90
5956;DHT22;3004;48.080;11.600;2023-03-05T10:46:31;2.50;99.90
5956;DHT22;3004;48.080;11.600;2023-03-05T10:49:05;2.60;99.90
5956;DHT22;3004;48.080;11.600;2023-03-05T10:51:50;2.60;99.90
5956;DHT22;3004;48.080;11.600;2023-03-05T10:54:23;2.50;99.90
5956;DHT22;3004;48.080;11.600;2023-03-05T10:57:14;2.50;99.90
5956;DHT22;3004;48.080;11.600;2023-03-05T10:59:48;2.50;99.90
5956;DHT22;3004;48.080;11.600;2023-03-05T11:02:22;2.50;99.90
5956;DHT22;3004;48.080;11.600;2023-03-05T11:04:49;2.60;99.90
5956;DHT22;3004;48.080;11.600;2023-03-05T11:07:35;2.50;99.90
5956;DHT22;3004;48.080;11.600;2023-03-05T11:10:14;2.50;99.90
5956;DHT22;3004;48.080;11.600;2023-03-05T11:12:45;2.60;99.90
5956;DHT22;3004;48.080;11.600;2023-03-05T11:15:27;2.80;99.90
5956;DHT22;3004;48.080;11.600;2023-03-05T11:18:17;2.70;99.90
5956;DHT22;3004;48.080;11.600;2023-03-05T11:20:44;2.70;99.90
5956;DHT22;3004;48.080;11.600;2023-03-05T11:23:18;2.80;99.90
5956;DHT22;3004;48.080;11.600;2023-03-05T11:25:54;2.90;99.90
5956;DHT22;3004;48.080;11.600;2023-03-05T11:28:26;2.80;99.90
5956;DHT22;3004;48.080;11.600;2023-03-05T11:30:56;2.90;99.90
5956;DHT22;3004;48.080;11.600;2023-03-05T12:27:14;3.20;99.90
5956;DHT22;3004;48.080;11.600;2023-03-05T12:40:21;3.20;99.90
5956;DHT22;3004;48.080;11.600;2023-03-05T12:42:52;3.30;99.90
5956;DHT22;3004;48.080;11.600;2023-03-05T12:45:31;3.10;99.90
5956;DHT22;3004;48.080;11.600;2023-03-05T12:48:41;3.10;99.90
5956;DHT22;3004;48.080;11.600;2023-03-05T12:54:24;3.20;99.90
5956;DHT22;3004;48.080;11.600;2023-03-05T12:56:54;3.30;99.90
5956;DHT22;3004;48.080;11.600;2023-03-05T12:59:24;3.40;99.90
5956;DHT22;3004;48.080;11.600;2023-03-05T13:01:58;3.30;99.90
5956;DHT22;3004;48.080;11.600;2023-03-05T13:04:43;3.40;99.90
5956;DHT22;3004;48.080;11.600;2023-03-05T13:07:20;3.30;99.90
5956;DHT22;3004;48.080;11.600;2023-03-05T13:09:51;3.40;99.90
5956;DHT22;3004;48.080;11.600;2023-03-05T13:12:19;3.40;99.90
5956;DHT22;3004;48.080;11.600;2023-03-05T13:14:47;3.40;99.90
5956;DHT22;3004;48.080;11.600;2023-03-05T13:17:32;3.40;99.90
5956;DHT22;3004;48.080;11.600;2023-03-05T13:21:04;3.60;99.90
5956;DHT22;3004;48.080;11.600;2023-03-05T13:23:32;3.50;99.90
5956;DHT22;3004;48.080;11.600;2023-03-05T13:26:11;3.60;99.90
5956;DHT22;3004;48.080;11.600;2023-03-05T13:28:43;3.70;99.90
5956;DHT22;3004;48.080;11.600;2023-03-05T13:31:15;3.60;99.90
5956;DHT22;3004;48.080;11.600;2023-03-05T13:34:10;3.50;99.90
5956;DHT22;3004;48.080;11.600;2023-03-05T13:36:45;3.50;99.90
